This is the latest recevied weather packets stored in our database for station/object VK5GR-12. If no packets are shown the sender has not sent any weather packets the latest 10 day(s).
| Time | Temp. | Humidity | Pressure | Rain* | Wind** | Luminosity | Snow |
|---|---|---|---|---|---|---|---|
| 1777707320 | 14.44° C | 96% | 1010 hPa | 0 mm | - | 6 W/m² | - |
| 1777706418 | 14.44° C | 96% | 1010 hPa | 0 mm | - | 7 W/m² | - |
| 1777705517 | 14.44° C | 96% | 1010.1 hPa | 0 mm | - | 5 W/m² | - |
| 1777704617 | 14.44° C | 96% | 1009.9 hPa | 4.32 mm | - | 18 W/m² | - |
| 1777703715 | 14.44° C | 96% | 1009.9 hPa | 3.05 mm | - | 7 W/m² | - |
| 1777702815 | 15° C | 95% | 1009.4 hPa | 0 mm | - | 29 W/m² | - |
| 1777701909 | 15° C | 95% | 1009.4 hPa | 0 mm | - | 26 W/m² | - |
| 1777701009 | 15° C | 95% | 1009.6 hPa | 1.27 mm | - | 69 W/m² | - |
| 1777700106 | 15.56° C | 95% | 1009.6 hPa | 1.78 mm | - | 40 W/m² | - |
| 1777699207 | 15.56° C | 95% | 1009.3 hPa | 0 mm | - | 35 W/m² | - |
| 1777698303 | 15.56° C | 94% | 1009.3 hPa | 3.05 mm | - | 25 W/m² | - |
| 1777697400 | 16.11° C | 94% | 1009.2 hPa | 3.05 mm | - | 13 W/m² | - |
| 1777696497 | 16.11° C | 93% | 1009.8 hPa | 3.05 mm | - | 15 W/m² | - |
| 1777695596 | 16.11° C | 92% | 1009.7 hPa | 3.05 mm | - | 33 W/m² | - |
| 1777694693 | 16.11° C | 91% | 1009.4 hPa | 0 mm | - | 44 W/m² | - |
| 1777693789 | 16.11° C | 90% | 1009.8 hPa | 0 mm | - | 33 W/m² | - |
| 1777692889 | 16.67° C | 88% | 1009.5 hPa | 0 mm | - | 22 W/m² | - |
| 1777691984 | 17.78° C | 82% | 1009.6 hPa | 4.83 mm | - | 48 W/m² | - |
| 1777691085 | 18.89° C | 74% | 1009.6 hPa | 0 mm | - | 20 W/m² | - |
| 1777690183 | 19.44° C | 72% | 1009.3 hPa | 0 mm | - | 205 W/m² | - |
| 1777689281 | 20° C | 73% | 1009.3 hPa | 0 mm | - | 242 W/m² | - |
| 1777688378 | 18.89° C | 76% | 1009.5 hPa | 0 mm | - | 227 W/m² | - |
| 1777672124 | 23.33° C | 42% | 1008.5 hPa | 0 mm | - | 2 W/m² | - |
| 1777667609 | 23.89° C | 40% | 1008.7 hPa | 0 mm | - | 0 W/m² | - |
| 1777666705 | 23.89° C | 40% | 1008.8 hPa | 0 mm | - | 0 W/m² | - |
* Rain latest hour (hover to see other rain measurements)
** Current wind speed in m/s (hover to see current wind gust speed)